Time,TemperatureF,DewpointF,PressureIn,WindDirection,WindDirectionDegrees,WindSpeedMPH,WindSpeedGustMPH,Humidity,HourlyPrecipIn,Conditions,Clouds,dailyrainin,SoftwareType,DateUTC
2013-01-18 00:02:00,27.7,26.4,30.03,WSW,248,0.0,0.0,95,0.00,CLR,,0.00,WeatherDisplay:10.37,2013-01-18 08:02:00,
2013-01-18 00:07:00,27.7,26.4,30.03,WSW,248,0.0,0.0,95,0.00,CLR,,0.00,WeatherDisplay:10.37,2013-01-18 08:07:00,
2013-01-18 00:12:00,27.7,26.4,30.03,WSW,248,0.0,0.0,95,0.00,CLR,,0.00,WeatherDisplay:10.37,2013-01-18 08:12:00,
2013-01-18 00:17:00,27.7,26.4,30.03,WSW,248,0.0,0.0,95,0.00,CLR,,0.00,WeatherDisplay:10.37,2013-01-18 08:17:00,
2013-01-18 00:22:00,27.7,26.4,30.02,WSW,248,0.0,0.0,95,0.00,CLR,,0.00,WeatherDisplay:10.37,2013-01-18 08:22:00,
2013-01-18 00:27:00,27.5,26.3,30.02,WSW,248,0.0,0.0,95,0.00,CLR,,0.00,WeatherDisplay:10.37,2013-01-18 08:27:00,
2013-01-18 00:32:00,27.3,26.1,30.02,WSW,248,0.0,0.0,95,0.00,CLR,,0.00,WeatherDisplay:10.37,2013-01-18 08:32:00,
2013-01-18 00:37:00,27.3,26.1,30.02,WSW,248,0.0,0.0,95,0.00,CLR,,0.00,WeatherDisplay:10.37,2013-01-18 08:37:00,
2013-01-18 00:42:00,27.3,26.1,30.02,WSW,248,0.0,0.0,95,0.00,CLR,,0.00,WeatherDisplay:10.37,2013-01-18 08:42:00,
2013-01-18 00:47:00,27.1,25.9,30.02,WSW,248,0.0,0.0,95,0.00,CLR,,0.00,WeatherDisplay:10.37,2013-01-18 08:47:00,
2013-01-18 00:52:00,27.1,25.9,30.02,WSW,248,0.0,0.0,95,0.00,CLR,,0.00,WeatherDisplay:10.37,2013-01-18 08:52:00,
2013-01-18 00:57:00,27.0,25.7,30.01,WSW,248,0.0,0.0,95,0.00,CLR,,0.00,WeatherDisplay:10.37,2013-01-18 08:57:00,
2013-01-18 01:03:00,26.8,25.5,30.01,WSW,248,0.0,0.0,95,0.00,CLR,,0.00,WeatherDisplay:10.37,2013-01-18 09:03:00,
2013-01-18 01:08:00,26.8,25.5,30.02,WSW,248,0.0,0.0,95,0.00,CLR,,0.00,WeatherDisplay:10.37,2013-01-18 09:08:00,
2013-01-18 01:13:00,26.6,25.4,30.02,WSW,248,0.0,0.0,95,0.00,CLR,,0.00,WeatherDisplay:10.37,2013-01-18 09:13:00,
2013-01-18 01:18:00,26.4,25.2,30.02,WSW,248,0.0,0.0,95,0.00,CLR,,0.00,WeatherDisplay:10.37,2013-01-18 09:18:00,
2013-01-18 01:23:00,26.4,25.2,30.02,WSW,248,0.0,0.0,95,0.00,CLR,,0.00,WeatherDisplay:10.37,2013-01-18 09:23:00,
2013-01-18 01:28:00,26.4,25.2,30.01,WSW,248,0.0,0.0,95,0.00,CLR,,0.00,WeatherDisplay:10.37,2013-01-18 09:28:00,
2013-01-18 01:34:00,26.4,25.2,30.01,WSW,248,0.0,0.0,95,0.00,CLR,,0.00,WeatherDisplay:10.37,2013-01-18 09:34:00,
2013-01-18 01:39:00,26.2,25.0,30.01,WSW,248,0.0,0.0,95,0.00,CLR,,0.00,WeatherDisplay:10.37,2013-01-18 09:39:00,
2013-01-18 01:44:00,26.2,25.0,30.01,WSW,248,0.0,0.0,95,0.00,CLR,,0.00,WeatherDisplay:10.37,2013-01-18 09:44:00,
2013-01-18 01:49:00,26.2,25.0,30.02,WSW,248,0.0,0.0,95,0.00,CLR,,0.00,WeatherDisplay:10.37,2013-01-18 09:49:00,
2013-01-18 01:54:00,26.1,24.8,30.01,WSW,248,0.0,0.0,95,0.00,CLR,,0.00,WeatherDisplay:10.37,2013-01-18 09:54:00,
2013-01-18 01:59:00,26.1,24.8,30.02,WSW,248,0.0,0.0,95,0.00,CLR,,0.00,WeatherDisplay:10.37,2013-01-18 09:59:00,
2013-01-18 02:04:00,25.9,24.6,30.01,WSW,248,0.0,0.0,95,0.00,CLR,,0.00,WeatherDisplay:10.37,2013-01-18 10:04:00,
2013-01-18 02:09:00,25.9,24.6,30.01,WSW,248,0.0,0.0,95,0.00,CLR,,0.00,WeatherDisplay:10.37,2013-01-18 10:09:00,
2013-01-18 02:14:00,25.9,24.6,30.01,WSW,248,0.0,0.0,95,0.00,CLR,,0.00,WeatherDisplay:10.37,2013-01-18 10:14:00,
2013-01-18 02:19:00,25.9,24.6,30.02,WSW,248,0.0,0.0,95,0.00,CLR,,0.00,WeatherDisplay:10.37,2013-01-18 10:19:00,
2013-01-18 02:24:00,25.7,24.5,30.02,WSW,248,0.0,0.0,95,0.00,CLR,,0.00,WeatherDisplay:10.37,2013-01-18 10:24:00,
2013-01-18 02:32:00,25.7,24.5,30.01,WSW,248,0.0,0.0,95,0.00,CLR,,0.00,WeatherDisplay:10.37,2013-01-18 10:32:00,
2013-01-18 02:37:00,25.5,24.3,30.01,WSW,248,0.0,0.0,95,0.00,CLR,,0.00,WeatherDisplay:10.37,2013-01-18 10:37:00,
2013-01-18 02:42:00,25.5,24.0,30.01,WSW,248,0.0,0.0,94,0.00,CLR,,0.00,WeatherDisplay:10.37,2013-01-18 10:42:00,
2013-01-18 02:47:00,25.5,24.0,30.01,WSW,248,0.0,0.0,94,0.00,CLR,,0.00,WeatherDisplay:10.37,2013-01-18 10:47:00,
2013-01-18 02:52:00,25.3,23.9,30.01,WSW,248,0.0,0.0,94,0.00,CLR,,0.00,WeatherDisplay:10.37,2013-01-18 10:52:00,
2013-01-18 02:57:00,25.3,23.9,30.01,WSW,248,0.0,0.0,94,0.00,CLR,,0.00,WeatherDisplay:10.37,2013-01-18 10:57:00,
2013-01-18 03:02:00,25.3,23.9,30.02,WSW,248,0.0,0.0,94,0.00,CLR,,0.00,WeatherDisplay:10.37,2013-01-18 11:02:00,
2013-01-18 03:07:00,25.3,23.9,30.01,WSW,248,0.0,0.0,94,0.00,CLR,,0.00,WeatherDisplay:10.37,2013-01-18 11:07:00,
2013-01-18 03:12:00,25.2,23.7,30.01,WSW,248,0.0,0.0,94,0.00,CLR,,0.00,WeatherDisplay:10.37,2013-01-18 11:12:00,
2013-01-18 03:18:00,25.2,23.7,30.01,WSW,248,0.0,0.0,94,0.00,CLR,,0.00,WeatherDisplay:10.37,2013-01-18 11:18:00,
2013-01-18 03:23:00,25.2,23.7,30.01,WSW,248,0.0,0.0,94,0.00,CLR,,0.00,WeatherDisplay:10.37,2013-01-18 11:23:00,
2013-01-18 03:28:00,25.2,23.7,30.01,WSW,248,0.0,0.0,94,0.00,CLR,,0.00,WeatherDisplay:10.37,2013-01-18 11:28:00,
2013-01-18 03:34:00,25.2,23.7,30.01,WSW,248,0.0,0.0,94,0.00,CLR,,0.00,WeatherDisplay:10.37,2013-01-18 11:34:00,
2013-01-18 03:39:00,25.0,23.5,30.01,WSW,248,0.0,0.0,94,0.00,CLR,,0.00,WeatherDisplay:10.37,2013-01-18 11:39:00,
2013-01-18 03:44:00,25.0,23.5,30.01,WSW,248,0.0,0.0,94,0.00,CLR,,0.00,WeatherDisplay:10.37,2013-01-18 11:44:00,
2013-01-18 03:49:00,25.0,23.5,30.01,WSW,248,0.0,0.0,94,0.00,CLR,,0.00,WeatherDisplay:10.37,2013-01-18 11:49:00,
2013-01-18 03:54:00,25.0,23.5,30.01,WSW,248,0.0,0.0,94,0.00,CLR,,0.00,WeatherDisplay:10.37,2013-01-18 11:54:00,
2013-01-18 03:59:00,25.0,23.5,30.00,WSW,248,0.0,0.0,94,0.00,CLR,,0.00,WeatherDisplay:10.37,2013-01-18 11:59:00,
2013-01-18 04:04:00,24.6,23.1,30.00,WSW,248,0.0,0.0,94,0.00,CLR,,0.00,WeatherDisplay:10.37,2013-01-18 12:04:00,
2013-01-18 04:09:00,24.6,23.1,30.00,WSW,248,0.0,0.0,94,0.00,CLR,,0.00,WeatherDisplay:10.37,2013-01-18 12:09:00,
2013-01-18 04:14:00,24.6,23.1,30.00,WSW,248,0.0,0.0,94,0.00,CLR,,0.00,WeatherDisplay:10.37,2013-01-18 12:14:00,
2013-01-18 04:19:00,24.6,23.1,30.00,WSW,248,0.0,0.0,94,0.00,CLR,,0.00,WeatherDisplay:10.37,2013-01-18 12:19:00,
2013-01-18 04:24:00,24.6,23.1,29.99,WSW,248,0.0,0.0,94,0.00,CLR,,0.00,WeatherDisplay:10.37,2013-01-18 12:24:00,
2013-01-18 04:29:00,24.6,23.1,30.00,WSW,248,0.0,0.0,94,0.00,CLR,,0.00,WeatherDisplay:10.37,2013-01-18 12:29:00,
2013-01-18 04:34:00,24.6,23.1,29.99,WSW,248,0.0,0.0,94,0.00,CLR,,0.00,WeatherDisplay:10.37,2013-01-18 12:34:00,
2013-01-18 04:39:00,24.6,23.1,30.00,WSW,248,0.0,0.0,94,0.00,CLR,,0.00,WeatherDisplay:10.37,2013-01-18 12:39:00,
2013-01-18 04:44:00,24.6,23.4,29.99,WSW,248,0.0,0.0,95,0.00,CLR,,0.00,WeatherDisplay:10.37,2013-01-18 12:44:00,
2013-01-18 04:49:00,24.6,23.1,29.99,WSW,248,0.0,0.0,94,0.00,CLR,,0.00,WeatherDisplay:10.37,2013-01-18 12:49:00,
2013-01-18 04:54:00,24.6,23.4,30.00,WSW,248,0.0,0.0,95,0.00,CLR,,0.00,WeatherDisplay:10.37,2013-01-18 12:54:00,
2013-01-18 04:59:00,24.6,23.4,30.00,WSW,248,0.0,0.0,95,0.00,CLR,,0.00,WeatherDisplay:10.37,2013-01-18 12:59:00,
2013-01-18 05:04:00,24.4,23.2,29.99,WSW,248,0.0,0.0,95,0.00,CLR,,0.00,WeatherDisplay:10.37,2013-01-18 13:04:00,
2013-01-18 05:09:00,24.4,23.2,29.99,WSW,248,0.0,0.0,95,0.00,CLR,,0.00,WeatherDisplay:10.37,2013-01-18 13:09:00,
2013-01-18 05:14:00,24.4,23.2,29.99,WSW,248,0.0,0.0,95,0.00,CLR,,0.00,WeatherDisplay:10.37,2013-01-18 13:14:00,
2013-01-18 05:19:00,24.4,23.2,29.99,WSW,248,0.0,0.0,95,0.00,CLR,,0.00,WeatherDisplay:10.37,2013-01-18 13:19:00,
2013-01-18 05:24:00,24.4,23.2,29.99,WSW,248,0.0,0.0,95,0.00,CLR,,0.00,WeatherDisplay:10.37,2013-01-18 13:24:00,
2013-01-18 05:29:00,24.4,23.2,29.99,WSW,248,0.0,0.0,95,0.00,CLR,,0.00,WeatherDisplay:10.37,2013-01-18 13:29:00,
2013-01-18 05:34:00,24.3,23.0,29.99,WSW,248,0.0,0.0,95,0.00,CLR,,0.00,WeatherDisplay:10.37,2013-01-18 13:34:00,
2013-01-18 05:39:00,24.1,22.9,29.99,WSW,248,0.0,0.0,95,0.00,CLR,,0.00,WeatherDisplay:10.37,2013-01-18 13:39:00,
2013-01-18 05:44:00,24.1,22.9,29.99,WSW,248,0.0,0.0,95,0.00,CLR,,0.00,WeatherDisplay:10.37,2013-01-18 13:44:00,
2013-01-18 05:49:00,24.1,22.9,29.99,WSW,248,0.0,0.0,95,0.00,CLR,,0.00,WeatherDisplay:10.37,2013-01-18 13:49:00,
2013-01-18 05:54:00,24.1,22.9,30.00,WSW,248,0.0,0.0,95,0.00,CLR,,0.00,WeatherDisplay:10.37,2013-01-18 13:54:00,
2013-01-18 05:59:00,24.1,22.9,30.00,WSW,248,0.0,0.0,95,0.00,CLR,,0.00,WeatherDisplay:10.37,2013-01-18 13:59:00,
2013-01-18 06:04:00,24.1,22.9,29.99,WSW,248,0.0,0.0,95,0.00,CLR,,0.00,WeatherDisplay:10.37,2013-01-18 14:04:00,
2013-01-18 06:09:00,24.1,22.9,30.00,WSW,248,0.0,0.0,95,0.00,CLR,,0.00,WeatherDisplay:10.37,2013-01-18 14:09:00,
2013-01-18 06:14:00,24.1,22.9,30.00,WSW,248,0.0,0.0,95,0.00,CLR,,0.00,WeatherDisplay:10.37,2013-01-18 14:14:00,
2013-01-18 06:19:00,24.1,22.9,29.99,WSW,248,0.0,0.0,95,0.00,CLR,,0.00,WeatherDisplay:10.37,2013-01-18 14:19:00,
2013-01-18 06:24:00,24.1,22.9,29.99,WSW,248,0.0,0.0,95,0.00,CLR,,0.00,WeatherDisplay:10.37,2013-01-18 14:24:00,
2013-01-18 06:29:00,24.4,23.2,30.00,WSW,248,0.0,0.0,95,0.00,CLR,,0.00,WeatherDisplay:10.37,2013-01-18 14:29:00,
2013-01-18 06:34:00,24.4,23.2,30.00,WSW,248,0.0,0.0,95,0.00,CLR,,0.00,WeatherDisplay:10.37,2013-01-18 14:34:00,
2013-01-18 06:39:00,24.4,23.2,30.00,WSW,248,0.0,0.0,95,0.00,CLR,,0.00,WeatherDisplay:10.37,2013-01-18 14:39:00,
2013-01-18 06:44:00,24.4,23.2,30.00,WSW,248,0.0,0.0,95,0.00,CLR,,0.00,WeatherDisplay:10.37,2013-01-18 14:44:00,
2013-01-18 06:49:00,24.4,23.2,30.00,WSW,248,0.0,0.0,95,0.00,CLR,,0.00,WeatherDisplay:10.37,2013-01-18 14:49:00,
2013-01-18 06:54:00,24.4,23.2,30.00,WSW,248,0.0,0.0,95,0.00,CLR,,0.00,WeatherDisplay:10.37,2013-01-18 14:54:00,
2013-01-18 06:59:00,24.4,23.2,30.00,WSW,248,0.0,0.0,95,0.00,CLR,,0.00,WeatherDisplay:10.37,2013-01-18 14:59:00,
2013-01-18 07:04:00,24.4,23.2,30.00,WSW,248,0.0,0.0,95,0.00,CLR,,0.00,WeatherDisplay:10.37,2013-01-18 15:04:00,
2013-01-18 07:09:00,24.6,23.4,30.00,WSW,248,0.0,0.0,95,0.00,CLR,,0.00,WeatherDisplay:10.37,2013-01-18 15:09:00,
2013-01-18 07:14:00,24.4,23.2,30.00,WSW,248,0.0,0.0,95,0.00,CLR,,0.00,WeatherDisplay:10.37,2013-01-18 15:14:00,
2013-01-18 07:19:00,24.6,23.4,30.00,WSW,248,0.0,0.0,95,0.00,CLR,,0.00,WeatherDisplay:10.37,2013-01-18 15:19:00,
2013-01-18 07:24:00,24.6,23.4,30.00,WSW,248,0.0,0.0,95,0.00,CLR,,0.00,WeatherDisplay:10.37,2013-01-18 15:24:00,
2013-01-18 07:29:00,24.6,23.4,30.00,WSW,248,0.0,0.0,95,0.00,CLR,,0.00,WeatherDisplay:10.37,2013-01-18 15:29:00,
2013-01-18 07:35:00,24.6,23.4,30.00,WSW,248,0.0,0.0,95,0.00,CLR,,0.00,WeatherDisplay:10.37,2013-01-18 15:35:00,
2013-01-18 07:40:00,24.6,23.4,29.99,WSW,248,0.0,0.0,95,0.00,CLR,,0.00,WeatherDisplay:10.37,2013-01-18 15:40:00,
2013-01-18 07:45:00,24.6,23.4,29.99,WSW,248,0.0,0.0,95,0.00,CLR,,0.00,WeatherDisplay:10.37,2013-01-18 15:45:00,
2013-01-18 07:50:00,24.6,23.4,30.00,WSW,248,0.0,0.0,95,0.00,CLR,,0.00,WeatherDisplay:10.37,2013-01-18 15:50:00,
2013-01-18 07:55:00,24.6,23.4,30.00,WSW,248,0.0,0.0,95,0.00,CLR,,0.00,WeatherDisplay:10.37,2013-01-18 15:55:00,
2013-01-18 08:00:00,24.6,23.4,30.00,WSW,248,0.0,0.0,95,0.00,CLR,,0.00,WeatherDisplay:10.37,2013-01-18 16:00:00,
2013-01-18 08:05:00,24.6,23.4,30.00,WSW,248,0.0,0.0,95,0.00,CLR,,0.00,WeatherDisplay:10.37,2013-01-18 16:05:00,
2013-01-18 08:10:00,24.6,23.4,30.00,WSW,248,0.0,0.0,95,0.00,CLR,,0.00,WeatherDisplay:10.37,2013-01-18 16:10:00,
2013-01-18 08:15:00,24.6,23.4,30.00,WSW,248,0.0,0.0,95,0.00,CLR,,0.00,WeatherDisplay:10.37,2013-01-18 16:15:00,
2013-01-18 08:20:00,24.6,23.4,30.01,WSW,248,0.0,0.0,95,0.00,CLR,,0.00,WeatherDisplay:10.37,2013-01-18 16:20:00,
2013-01-18 08:25:00,24.6,23.4,30.01,WSW,248,0.0,0.0,95,0.00,CLR,,0.00,WeatherDisplay:10.37,2013-01-18 16:25:00,
2013-01-18 08:31:00,24.6,23.4,30.01,WSW,248,0.0,0.0,95,0.00,CLR,,0.00,WeatherDisplay:10.37,2013-01-18 16:31:00,
2013-01-18 08:36:00,24.4,23.2,30.01,WSW,248,0.0,0.0,95,0.00,CLR,,0.00,WeatherDisplay:10.37,2013-01-18 16:36:00,
2013-01-18 08:41:00,24.6,23.4,30.01,WSW,248,0.0,0.0,95,0.00,CLR,,0.00,WeatherDisplay:10.37,2013-01-18 16:41:00,
2013-01-18 08:46:00,24.6,23.4,30.01,WSW,248,0.0,0.0,95,0.00,CLR,,0.00,WeatherDisplay:10.37,2013-01-18 16:46:00,
2013-01-18 08:51:00,24.6,23.4,30.01,WSW,248,0.0,0.0,95,0.00,CLR,,0.00,WeatherDisplay:10.37,2013-01-18 16:51:00,
2013-01-18 08:56:00,24.6,23.4,30.01,WSW,248,0.0,0.0,95,0.00,CLR,,0.00,WeatherDisplay:10.37,2013-01-18 16:56:00,
2013-01-18 09:02:00,24.6,23.4,30.02,WSW,248,0.0,0.0,95,0.00,CLR,,0.00,WeatherDisplay:10.37,2013-01-18 17:02:00,
2013-01-18 09:07:00,24.6,23.4,30.02,WSW,248,0.0,0.0,95,0.00,CLR,,0.00,WeatherDisplay:10.37,2013-01-18 17:07:00,
2013-01-18 09:12:00,24.6,23.4,30.02,WSW,248,0.0,0.0,95,0.00,CLR,,0.00,WeatherDisplay:10.37,2013-01-18 17:12:00,
2013-01-18 09:17:00,25.0,23.8,30.02,WSW,248,0.0,0.0,95,0.00,CLR,,0.00,WeatherDisplay:10.37,2013-01-18 17:17:00,
2013-01-18 09:23:00,25.3,24.1,30.03,WSW,248,0.0,0.0,95,0.00,CLR,,0.00,WeatherDisplay:10.37,2013-01-18 17:23:00,
2013-01-18 09:28:00,25.7,24.5,30.03,WSW,248,0.0,0.0,95,0.00,CLR,,0.00,WeatherDisplay:10.37,2013-01-18 17:28:00,
2013-01-18 09:33:00,26.2,25.0,30.03,WSW,248,0.0,0.0,95,0.00,CLR,,0.00,WeatherDisplay:10.37,2013-01-18 17:33:00,
2013-01-18 09:38:00,26.4,25.2,30.04,WSW,248,0.0,0.0,95,0.00,CLR,,0.00,WeatherDisplay:10.37,2013-01-18 17:38:00,
2013-01-18 09:43:00,27.1,25.9,30.04,WSW,248,0.0,0.0,95,0.00,CLR,,0.00,WeatherDisplay:10.37,2013-01-18 17:43:00,
2013-01-18 09:49:00,27.3,26.1,30.03,WSW,248,0.0,0.0,95,0.00,CLR,,0.00,WeatherDisplay:10.37,2013-01-18 17:49:00,
2013-01-18 09:54:00,28.0,26.8,30.03,WSW,248,0.0,0.0,95,0.00,CLR,,0.00,WeatherDisplay:10.37,2013-01-18 17:54:00,
2013-01-18 09:59:00,28.2,27.0,30.04,WSW,248,0.0,0.0,95,0.00,CLR,,0.00,WeatherDisplay:10.37,2013-01-18 17:59:00,
2013-01-18 10:04:00,28.8,27.5,30.03,WSW,248,0.0,0.0,95,0.00,CLR,,0.00,WeatherDisplay:10.37,2013-01-18 18:04:00,
2013-01-18 10:09:00,29.1,27.9,30.04,WSW,248,0.0,0.0,95,0.00,CLR,,0.00,WeatherDisplay:10.37,2013-01-18 18:09:00,
2013-01-18 10:14:00,29.5,28.2,30.04,WSW,248,0.0,0.0,95,0.00,CLR,,0.00,WeatherDisplay:10.37,2013-01-18 18:14:00,
2013-01-18 10:19:00,30.0,28.8,30.04,WSW,248,0.0,0.0,95,0.00,CLR,,0.00,WeatherDisplay:10.37,2013-01-18 18:19:00,
2013-01-18 10:24:00,30.4,29.1,30.04,WSW,248,0.0,0.0,95,0.00,CLR,,0.00,WeatherDisplay:10.37,2013-01-18 18:24:00,
2013-01-18 10:29:00,30.7,29.5,30.04,WSW,248,0.0,0.0,95,0.00,CLR,,0.00,WeatherDisplay:10.37,2013-01-18 18:29:00,
2013-01-18 10:34:00,30.9,29.7,30.04,WSW,248,0.0,0.0,95,0.00,CLR,,0.00,WeatherDisplay:10.37,2013-01-18 18:34:00,
2013-01-18 10:39:00,31.3,30.0,30.04,WSW,248,0.0,0.0,95,0.00,CLR,,0.00,WeatherDisplay:10.37,2013-01-18 18:39:00,
2013-01-18 10:44:00,31.6,30.4,30.04,WSW,248,0.0,0.0,95,0.00,CLR,,0.00,WeatherDisplay:10.37,2013-01-18 18:44:00,
2013-01-18 10:49:00,31.8,30.6,30.04,WSW,248,0.0,0.0,95,0.00,CLR,,0.00,WeatherDisplay:10.37,2013-01-18 18:49:00,
2013-01-18 10:54:00,32.2,30.9,30.04,WSW,248,0.0,0.0,95,0.00,CLR,,0.00,WeatherDisplay:10.37,2013-01-18 18:54:00,
2013-01-18 10:59:00,32.4,31.1,30.04,WSW,248,0.0,0.0,95,0.00,CLR,,0.00,WeatherDisplay:10.37,2013-01-18 18:59:00,
2013-01-18 11:04:00,32.5,31.3,30.04,WSW,248,0.0,0.0,95,0.00,CLR,,0.00,WeatherDisplay:10.37,2013-01-18 19:04:00,
2013-01-18 11:09:00,32.7,31.4,30.04,WSW,248,0.0,0.0,95,0.00,CLR,,0.00,WeatherDisplay:10.37,2013-01-18 19:09:00,
2013-01-18 11:14:00,32.7,31.4,30.03,WSW,248,0.0,0.0,95,0.00,CLR,,0.00,WeatherDisplay:10.37,2013-01-18 19:14:00,
2013-01-18 11:19:00,32.7,31.4,30.04,WSW,248,0.0,0.0,95,0.00,CLR,,0.00,WeatherDisplay:10.37,2013-01-18 19:19:00,
2013-01-18 11:24:00,33.1,31.8,30.03,WSW,248,0.0,0.0,95,0.00,CLR,,0.00,WeatherDisplay:10.37,2013-01-18 19:24:00,
2013-01-18 11:29:00,33.4,32.2,30.03,WSW,248,0.0,0.0,95,0.00,CLR,,0.00,WeatherDisplay:10.37,2013-01-18 19:29:00,
2013-01-18 11:34:00,33.6,32.3,30.03,WSW,248,0.0,0.0,95,0.00,CLR,,0.00,WeatherDisplay:10.37,2013-01-18 19:34:00,
2013-01-18 11:39:00,33.8,32.5,30.03,WSW,248,0.0,0.0,95,0.00,CLR,,0.00,WeatherDisplay:10.37,2013-01-18 19:39:00,
2013-01-18 11:44:00,34.0,32.7,30.03,WSW,248,0.0,0.0,95,0.00,CLR,,0.00,WeatherDisplay:10.37,2013-01-18 19:44:00,
2013-01-18 11:49:00,34.3,33.1,30.02,WSW,248,0.0,0.0,95,0.00,CLR,,0.00,WeatherDisplay:10.37,2013-01-18 19:49:00,
2013-01-18 11:54:00,34.3,33.1,30.02,WSW,248,0.0,0.0,95,0.00,CLR,,0.00,WeatherDisplay:10.37,2013-01-18 19:54:00,
2013-01-18 11:59:00,34.3,33.1,30.02,WSW,248,0.0,0.0,95,0.00,CLR,,0.00,WeatherDisplay:10.37,2013-01-18 19:59:00,
2013-01-18 12:04:00,34.5,33.2,30.02,WNW,292,0.0,0.0,95,0.00,CLR,,0.00,WeatherDisplay:10.37,2013-01-18 20:04:00,
2013-01-18 12:09:00,34.5,33.0,30.02,NW,315,0.0,0.0,94,0.00,CLR,,0.00,WeatherDisplay:10.37,2013-01-18 20:09:00,
2013-01-18 12:14:00,34.3,32.8,30.02,NW,315,0.0,0.0,94,0.00,CLR,,0.00,WeatherDisplay:10.37,2013-01-18 20:14:00,
2013-01-18 12:19:00,34.5,33.0,30.03,NW,315,0.0,0.0,94,0.00,CLR,,0.00,WeatherDisplay:10.37,2013-01-18 20:19:00,
2013-01-18 12:24:00,34.3,32.8,30.03,NW,315,0.0,0.0,94,0.00,CLR,,0.00,WeatherDisplay:10.37,2013-01-18 20:24:00,
2013-01-18 12:29:00,34.3,32.8,30.02,NW,315,0.0,0.0,94,0.00,CLR,,0.00,WeatherDisplay:10.37,2013-01-18 20:29:00,
2013-01-18 12:34:00,34.9,33.3,30.03,WNW,292,0.0,0.0,94,0.00,CLR,,0.00,WeatherDisplay:10.37,2013-01-18 20:34:00,
2013-01-18 12:39:00,35.2,33.7,30.03,WNW,292,0.0,0.0,94,0.00,CLR,,0.00,WeatherDisplay:10.37,2013-01-18 20:39:00,
2013-01-18 12:44:00,35.4,33.9,30.03,West,270,0.0,0.0,94,0.00,CLR,,0.00,WeatherDisplay:10.37,2013-01-18 20:44:00,
2013-01-18 12:49:00,35.8,34.2,30.03,West,270,0.0,0.0,94,0.00,CLR,,0.00,WeatherDisplay:10.37,2013-01-18 20:49:00,
2013-01-18 12:54:00,36.3,34.8,30.03,West,270,4.6,4.6,94,0.00,CLR,,0.00,WeatherDisplay:10.37,2013-01-18 20:54:00,
2013-01-18 12:59:00,36.5,34.9,30.03,North,0,0.0,0.0,94,0.00,CLR,,0.00,WeatherDisplay:10.37,2013-01-18 20:59:00,
2013-01-18 13:04:00,36.7,34.8,30.02,NW,315,4.6,4.6,93,0.00,CLR,,0.00,WeatherDisplay:10.37,2013-01-18 21:04:00,
2013-01-18 13:09:00,36.9,35.0,30.03,West,270,0.0,0.0,93,0.00,CLR,,0.00,WeatherDisplay:10.37,2013-01-18 21:09:00,
2013-01-18 13:14:00,37.0,35.2,30.02,WSW,248,5.8,5.8,93,0.00,CLR,,0.00,WeatherDisplay:10.37,2013-01-18 21:14:00,
2013-01-18 13:19:00,36.9,35.0,30.02,NW,315,0.0,0.0,93,0.00,CLR,,0.00,WeatherDisplay:10.37,2013-01-18 21:19:00,
2013-01-18 13:24:00,36.9,35.0,30.02,NE,45,3.5,3.5,93,0.00,CLR,,0.00,WeatherDisplay:10.37,2013-01-18 21:24:00,
2013-01-18 13:29:00,36.7,34.6,30.02,WNW,292,0.0,0.0,92,0.00,CLR,,0.00,WeatherDisplay:10.37,2013-01-18 21:29:00,
2013-01-18 13:34:00,36.5,34.7,30.01,NW,315,1.1,0.0,93,0.00,CLR,,0.00,WeatherDisplay:10.37,2013-01-18 21:34:00,
2013-01-18 13:39:00,36.5,34.7,30.02,WNW,292,1.3,1.3,93,0.00,CLR,,0.00,WeatherDisplay:10.37,2013-01-18 21:39:00,
2013-01-18 13:44:00,36.5,34.7,30.02,WNW,292,1.6,1.6,93,0.00,CLR,,0.00,WeatherDisplay:10.37,2013-01-18 21:44:00,
2013-01-18 13:49:00,36.5,34.7,30.01,WNW,292,1.2,1.2,93,0.00,CLR,,0.00,WeatherDisplay:10.37,2013-01-18 21:49:00,
2013-01-18 13:54:00,36.5,34.7,30.02,NW,315,0.0,0.0,93,0.00,CLR,,0.00,WeatherDisplay:10.37,2013-01-18 21:54:00,
2013-01-18 13:59:00,36.5,34.7,30.02,WNW,292,0.0,0.0,93,0.00,CLR,,0.00,WeatherDisplay:10.37,2013-01-18 21:59:00,
2013-01-18 14:04:00,36.5,34.7,30.02,NW,315,0.0,0.0,93,0.00,CLR,,0.00,WeatherDisplay:10.37,2013-01-18 22:04:00,
2013-01-18 14:09:00,36.3,34.5,30.02,North,0,0.0,0.0,93,0.00,CLR,,0.00,WeatherDisplay:10.37,2013-01-18 22:09:00,
2013-01-18 14:14:00,36.3,34.5,30.02,NNE,22,2.3,0.0,93,0.00,CLR,,0.00,WeatherDisplay:10.37,2013-01-18 22:14:00,
2013-01-18 14:19:00,36.1,34.3,30.02,NW,315,0.0,0.0,93,0.00,CLR,,0.00,WeatherDisplay:10.37,2013-01-18 22:19:00,
2013-01-18 14:24:00,36.1,34.3,30.01,NNW,338,0.0,0.0,93,0.00,CLR,,0.00,WeatherDisplay:10.37,2013-01-18 22:24:00,
2013-01-18 14:29:00,36.1,34.3,30.01,NW,315,1.2,0.0,93,0.00,CLR,,0.00,WeatherDisplay:10.37,2013-01-18 22:29:00,
2013-01-18 14:34:00,36.3,34.5,30.01,WSW,248,0.0,0.0,93,0.00,CLR,,0.00,WeatherDisplay:10.37,2013-01-18 22:34:00,
2013-01-18 14:39:00,36.5,34.9,30.01,WSW,248,0.0,0.0,94,0.00,CLR,,0.00,WeatherDisplay:10.37,2013-01-18 22:39:00,
2013-01-18 14:44:00,36.3,34.8,30.01,WSW,248,0.0,0.0,94,0.00,CLR,,0.00,WeatherDisplay:10.37,2013-01-18 22:44:00,
2013-01-18 14:49:00,36.5,34.7,30.01,West,270,0.0,0.0,93,0.00,CLR,,0.00,WeatherDisplay:10.37,2013-01-18 22:49:00,
2013-01-18 14:54:00,36.7,34.8,30.01,West,270,0.0,0.0,93,0.00,CLR,,0.00,WeatherDisplay:10.37,2013-01-18 22:54:00,
2013-01-18 14:59:00,36.7,34.8,30.02,West,270,0.0,0.0,93,0.00,CLR,,0.00,WeatherDisplay:10.37,2013-01-18 22:59:00,
2013-01-18 15:04:00,36.7,34.8,30.02,West,270,0.0,0.0,93,0.00,CLR,,0.00,WeatherDisplay:10.37,2013-01-18 23:04:00,
2013-01-18 15:09:00,36.7,34.8,30.02,West,270,2.7,2.7,93,0.00,CLR,,0.00,WeatherDisplay:10.37,2013-01-18 23:09:00,
2013-01-18 15:14:00,36.7,34.8,30.02,WNW,292,2.3,0.0,93,0.00,CLR,,0.00,WeatherDisplay:10.37,2013-01-18 23:14:00,
2013-01-18 15:19:00,36.7,34.8,30.03,WNW,292,0.0,0.0,93,0.00,CLR,,0.00,WeatherDisplay:10.37,2013-01-18 23:19:00,
2013-01-18 15:24:00,36.7,34.8,30.03,WNW,292,0.0,0.0,93,0.00,CLR,,0.00,WeatherDisplay:10.37,2013-01-18 23:24:00,
2013-01-18 15:29:00,36.5,34.7,30.03,WNW,292,0.0,0.0,93,0.00,CLR,,0.00,WeatherDisplay:10.37,2013-01-18 23:29:00,
2013-01-18 15:34:00,36.5,34.7,30.03,West,270,0.0,0.0,93,0.00,CLR,,0.00,WeatherDisplay:10.37,2013-01-18 23:34:00,
2013-01-18 15:39:00,36.3,34.5,30.02,West,270,0.0,0.0,93,0.00,CLR,,0.00,WeatherDisplay:10.37,2013-01-18 23:39:00,
2013-01-18 15:44:00,36.5,34.7,30.03,West,270,0.0,0.0,93,0.00,CLR,,0.00,WeatherDisplay:10.37,2013-01-18 23:44:00,
2013-01-18 15:49:00,36.3,34.5,30.02,West,270,0.0,0.0,93,0.00,CLR,,0.00,WeatherDisplay:10.37,2013-01-18 23:49:00,
2013-01-18 15:54:00,36.1,34.3,30.02,WNW,292,0.0,0.0,93,0.00,CLR,,0.00,WeatherDisplay:10.37,2013-01-18 23:54:00,
2013-01-18 15:59:00,36.0,34.1,30.03,WNW,292,0.0,0.0,93,0.00,CLR,,0.00,WeatherDisplay:10.37,2013-01-18 23:59:00,
2013-01-18 16:04:00,36.0,34.1,30.03,WNW,292,0.0,0.0,93,0.00,CLR,,0.00,WeatherDisplay:10.37,2013-01-19 00:04:00,
2013-01-18 16:09:00,35.6,33.8,30.03,WNW,292,0.0,0.0,93,0.00,CLR,,0.00,WeatherDisplay:10.37,2013-01-19 00:09:00,
2013-01-18 16:14:00,35.4,33.6,30.03,WNW,292,0.0,0.0,93,0.00,CLR,,0.00,WeatherDisplay:10.37,2013-01-19 00:14:00,
2013-01-18 16:19:00,35.2,33.4,30.03,WNW,292,0.0,0.0,93,0.00,CLR,,0.00,WeatherDisplay:10.37,2013-01-19 00:19:00,
2013-01-18 16:24:00,34.9,33.3,30.03,NW,315,0.0,0.0,94,0.00,CLR,,0.00,WeatherDisplay:10.37,2013-01-19 00:24:00,
2013-01-18 16:29:00,34.9,33.1,30.03,NNW,338,0.0,0.0,93,0.00,CLR,,0.00,WeatherDisplay:10.37,2013-01-19 00:29:00,
2013-01-18 16:34:00,34.5,32.7,30.03,NW,315,0.0,0.0,93,0.00,CLR,,0.00,WeatherDisplay:10.37,2013-01-19 00:34:00,
2013-01-18 16:39:00,34.3,32.5,30.03,WNW,292,0.0,0.0,93,0.00,CLR,,0.00,WeatherDisplay:10.37,2013-01-19 00:39:00,
2013-01-18 16:44:00,34.3,32.5,30.03,WNW,292,0.0,0.0,93,0.00,CLR,,0.00,WeatherDisplay:10.37,2013-01-19 00:44:00,
2013-01-18 16:49:00,34.3,32.8,30.03,WNW,292,0.0,0.0,94,0.00,CLR,,0.00,WeatherDisplay:10.37,2013-01-19 00:49:00,
2013-01-18 16:54:00,34.3,32.8,30.04,WNW,292,0.0,0.0,94,0.00,CLR,,0.00,WeatherDisplay:10.37,2013-01-19 00:54:00,
2013-01-18 16:59:00,34.3,32.8,30.03,WNW,292,0.0,0.0,94,0.00,CLR,,0.00,WeatherDisplay:10.37,2013-01-19 00:59:00,
2013-01-18 17:04:00,34.2,32.6,30.02,WNW,292,0.0,0.0,94,0.00,CLR,,0.00,WeatherDisplay:10.37,2013-01-19 01:04:00,
2013-01-18 17:09:00,34.0,32.4,30.04,WNW,292,0.0,0.0,94,0.00,CLR,,0.00,WeatherDisplay:10.37,2013-01-19 01:09:00,
2013-01-18 17:14:00,34.0,32.4,30.04,WNW,292,0.0,0.0,94,0.00,CLR,,0.00,WeatherDisplay:10.37,2013-01-19 01:14:00,
2013-01-18 17:19:00,33.8,32.3,30.03,WNW,292,0.0,0.0,94,0.00,CLR,,0.00,WeatherDisplay:10.37,2013-01-19 01:19:00,
2013-01-18 17:24:00,33.8,32.3,30.04,WNW,292,0.0,0.0,94,0.00,CLR,,0.00,WeatherDisplay:10.37,2013-01-19 01:24:00,
2013-01-18 17:29:00,33.6,32.1,30.03,WNW,292,0.0,0.0,94,0.00,CLR,,0.00,WeatherDisplay:10.37,2013-01-19 01:29:00,
2013-01-18 17:34:00,33.6,32.1,30.04,WNW,292,0.0,0.0,94,0.00,CLR,,0.00,WeatherDisplay:10.37,2013-01-19 01:34:00,
2013-01-18 17:39:00,33.6,32.1,30.03,WNW,292,0.0,0.0,94,0.00,CLR,,0.00,WeatherDisplay:10.37,2013-01-19 01:39:00,
2013-01-18 17:44:00,33.6,32.1,30.03,WNW,292,0.0,0.0,94,0.00,CLR,,0.00,WeatherDisplay:10.37,2013-01-19 01:44:00,
2013-01-18 17:49:00,33.6,32.1,30.03,WNW,292,0.0,0.0,94,0.00,CLR,,0.00,WeatherDisplay:10.37,2013-01-19 01:49:00,
2013-01-18 17:54:00,33.6,32.1,30.04,WNW,292,0.0,0.0,94,0.00,CLR,,0.00,WeatherDisplay:10.37,2013-01-19 01:54:00,
2013-01-18 17:59:00,33.4,31.9,30.03,WNW,292,0.0,0.0,94,0.00,CLR,,0.00,WeatherDisplay:10.37,2013-01-19 01:59:00,
2013-01-18 18:04:00,33.4,31.9,30.04,WNW,292,0.0,0.0,94,0.00,CLR,,0.00,WeatherDisplay:10.37,2013-01-19 02:04:00,
2013-01-18 18:09:00,33.4,31.9,30.04,WNW,292,0.0,0.0,94,0.00,CLR,,0.00,WeatherDisplay:10.37,2013-01-19 02:09:00,
2013-01-18 18:14:00,33.3,31.7,30.04,WNW,292,0.0,0.0,94,0.00,CLR,,0.00,WeatherDisplay:10.37,2013-01-19 02:14:00,
2013-01-18 18:19:00,33.1,31.5,30.04,WNW,292,0.0,0.0,94,0.00,CLR,,0.00,WeatherDisplay:10.37,2013-01-19 02:19:00,
2013-01-18 18:24:00,33.1,31.5,30.04,WNW,292,0.0,0.0,94,0.00,CLR,,0.00,WeatherDisplay:10.37,2013-01-19 02:24:00,
2013-01-18 18:29:00,33.1,31.5,30.04,WNW,292,0.0,0.0,94,0.00,CLR,,0.00,WeatherDisplay:10.37,2013-01-19 02:29:00,
2013-01-18 18:34:00,32.9,31.4,30.04,WNW,292,0.0,0.0,94,0.00,CLR,,0.00,WeatherDisplay:10.37,2013-01-19 02:34:00,
2013-01-18 18:39:00,32.9,31.4,30.04,WNW,292,0.0,0.0,94,0.00,CLR,,0.00,WeatherDisplay:10.37,2013-01-19 02:39:00,
2013-01-18 18:44:00,32.7,31.2,30.04,WNW,292,0.0,0.0,94,0.00,CLR,,0.00,WeatherDisplay:10.37,2013-01-19 02:44:00,
2013-01-18 18:49:00,32.7,31.2,30.04,WNW,292,0.0,0.0,94,0.00,CLR,,0.00,WeatherDisplay:10.37,2013-01-19 02:49:00,
2013-01-18 18:54:00,32.7,31.2,30.04,WNW,292,0.0,0.0,94,0.00,CLR,,0.00,WeatherDisplay:10.37,2013-01-19 02:54:00,
2013-01-18 18:59:00,32.7,31.2,30.04,WNW,292,0.0,0.0,94,0.00,CLR,,0.00,WeatherDisplay:10.37,2013-01-19 02:59:00,
2013-01-18 19:04:00,32.7,31.2,30.04,WNW,292,0.0,0.0,94,0.00,CLR,,0.00,WeatherDisplay:10.37,2013-01-19 03:04:00,
2013-01-18 19:09:00,32.5,31.0,30.04,WNW,292,0.0,0.0,94,0.00,CLR,,0.00,WeatherDisplay:10.37,2013-01-19 03:09:00,
2013-01-18 19:14:00,32.5,31.0,30.04,WNW,292,0.0,0.0,94,0.00,CLR,,0.00,WeatherDisplay:10.37,2013-01-19 03:14:00,
2013-01-18 19:19:00,32.5,31.0,30.04,WNW,292,0.0,0.0,94,0.00,CLR,,0.00,WeatherDisplay:10.37,2013-01-19 03:19:00,
2013-01-18 19:24:00,32.5,31.0,30.04,WNW,292,0.0,0.0,94,0.00,CLR,,0.00,WeatherDisplay:10.37,2013-01-19 03:24:00,
2013-01-18 19:29:00,32.4,30.8,30.04,WNW,292,0.0,0.0,94,0.00,CLR,,0.00,WeatherDisplay:10.37,2013-01-19 03:29:00,
2013-01-18 19:34:00,32.2,30.6,30.04,NE,45,0.0,0.0,94,0.00,CLR,,0.00,WeatherDisplay:10.37,2013-01-19 03:34:00,
2013-01-18 19:39:00,32.2,30.9,30.04,NE,45,0.0,0.0,95,0.00,CLR,,0.00,WeatherDisplay:10.37,2013-01-19 03:39:00,
2013-01-18 19:44:00,32.2,30.9,30.04,NE,45,0.0,0.0,95,0.00,CLR,,0.00,WeatherDisplay:10.37,2013-01-19 03:44:00,
2013-01-18 19:50:00,32.2,30.9,30.04,NE,45,0.0,0.0,95,0.00,CLR,,0.00,WeatherDisplay:10.37,2013-01-19 03:50:00,
2013-01-18 19:55:00,32.2,30.9,30.04,NE,45,0.0,0.0,95,0.00,CLR,,0.00,WeatherDisplay:10.37,2013-01-19 03:55:00,
2013-01-18 20:00:00,32.2,30.9,30.04,NE,45,0.0,0.0,95,0.00,CLR,,0.00,WeatherDisplay:10.37,2013-01-19 04:00:00,
2013-01-18 20:05:00,32.2,30.9,30.05,NE,45,0.0,0.0,95,0.00,CLR,,0.00,WeatherDisplay:10.37,2013-01-19 04:05:00,
2013-01-18 20:10:00,32.2,30.9,30.05,NE,45,0.0,0.0,95,0.00,CLR,,0.00,WeatherDisplay:10.37,2013-01-19 04:10:00,
2013-01-18 20:15:00,32.2,30.9,30.05,ESE,112,0.0,0.0,95,0.00,CLR,,0.00,WeatherDisplay:10.37,2013-01-19 04:15:00,
2013-01-18 20:20:00,31.8,30.6,30.05,ESE,112,0.0,0.0,95,0.00,CLR,,0.00,WeatherDisplay:10.37,2013-01-19 04:20:00,
2013-01-18 20:25:00,31.8,30.6,30.06,ESE,112,0.0,0.0,95,0.00,CLR,,0.00,WeatherDisplay:10.37,2013-01-19 04:25:00,
2013-01-18 20:30:00,31.8,30.6,30.06,ESE,112,0.0,0.0,95,0.00,CLR,,0.00,WeatherDisplay:10.37,2013-01-19 04:30:00,
2013-01-18 20:35:00,31.8,30.6,30.05,ESE,112,0.0,0.0,95,0.00,CLR,,0.00,WeatherDisplay:10.37,2013-01-19 04:35:00,
2013-01-18 20:40:00,31.8,30.6,30.06,ESE,112,0.0,0.0,95,0.00,CLR,,0.00,WeatherDisplay:10.37,2013-01-19 04:40:00,
2013-01-18 20:45:00,31.8,30.6,30.05,ESE,112,0.0,0.0,95,0.00,CLR,,0.00,WeatherDisplay:10.37,2013-01-19 04:45:00,
2013-01-18 20:50:00,31.8,30.6,30.05,ESE,112,0.0,0.0,95,0.00,CLR,,0.00,WeatherDisplay:10.37,2013-01-19 04:50:00,
2013-01-18 20:56:00,31.6,30.4,30.05,ESE,112,0.0,0.0,95,0.00,CLR,,0.00,WeatherDisplay:10.37,2013-01-19 04:56:00,
2013-01-18 21:01:00,31.6,30.4,30.06,ESE,112,0.0,0.0,95,0.00,CLR,,0.00,WeatherDisplay:10.37,2013-01-19 05:01:00,
2013-01-18 21:03:00,31.6,30.4,30.06,ESE,112,0.0,0.0,95,0.00,CLR,,0.00,WeatherDisplay:10.37,2013-01-19 05:03:00,
2013-01-18 21:08:00,31.6,30.4,30.06,ESE,112,0.0,0.0,95,0.00,CLR,,0.00,WeatherDisplay:10.37,2013-01-19 05:08:00,
2013-01-18 21:11:00,31.8,30.6,30.06,ESE,112,0.0,0.0,95,0.00,CLR,,0.00,WeatherDisplay:10.37,2013-01-19 05:11:00,
2013-01-18 21:17:00,31.6,30.4,30.06,ESE,112,0.0,0.0,95,0.00,CLR,,0.00,WeatherDisplay:10.37,2013-01-19 05:17:00,
2013-01-18 21:22:00,31.6,30.4,30.06,ESE,112,0.0,0.0,95,0.00,CLR,,0.00,WeatherDisplay:10.37,2013-01-19 05:22:00,
2013-01-18 21:27:00,31.6,30.4,30.06,ESE,112,0.0,0.0,95,0.00,CLR,,0.00,WeatherDisplay:10.37,2013-01-19 05:27:00,
2013-01-18 21:32:00,31.8,30.6,30.06,ESE,112,0.0,0.0,95,0.00,CLR,,0.00,WeatherDisplay:10.37,2013-01-19 05:32:00,
2013-01-18 21:37:00,31.8,30.6,30.06,ESE,112,0.0,0.0,95,0.00,CLR,,0.00,WeatherDisplay:10.37,2013-01-19 05:37:00,
2013-01-18 21:38:00,31.8,30.6,30.06,ESE,112,0.0,0.0,95,0.00,CLR,,0.00,WeatherDisplay:10.37,2013-01-19 05:38:00,
2013-01-18 21:43:00,31.8,30.6,30.06,ESE,112,0.0,0.0,95,0.00,CLR,,0.00,WeatherDisplay:10.37,2013-01-19 05:43:00,
2013-01-18 21:48:00,31.8,30.6,30.07,ESE,112,0.0,0.0,95,0.00,CLR,,0.00,WeatherDisplay:10.37,2013-01-19 05:48:00,
2013-01-18 21:53:00,31.8,30.6,30.06,ESE,112,0.0,0.0,95,0.00,CLR,,0.00,WeatherDisplay:10.37,2013-01-19 05:53:00,
2013-01-18 21:58:00,31.8,30.6,30.07,ESE,112,0.0,0.0,95,0.00,CLR,,0.00,WeatherDisplay:10.37,2013-01-19 05:58:00,
2013-01-18 22:03:00,31.8,30.6,30.07,ESE,112,0.0,0.0,95,0.00,CLR,,0.00,WeatherDisplay:10.37,2013-01-19 06:03:00,
2013-01-18 22:09:00,31.6,30.4,30.06,ESE,112,0.0,0.0,95,0.00,CLR,,0.00,WeatherDisplay:10.37,2013-01-19 06:09:00,
2013-01-18 22:14:00,31.6,30.4,30.07,ESE,112,0.0,0.0,95,0.00,CLR,,0.00,WeatherDisplay:10.37,2013-01-19 06:14:00,
2013-01-18 22:19:00,31.6,30.4,30.07,ESE,112,0.0,0.0,95,0.00,CLR,,0.00,WeatherDisplay:10.37,2013-01-19 06:19:00,
2013-01-18 22:24:00,31.6,30.4,30.07,ESE,112,0.0,0.0,95,0.00,CLR,,0.00,WeatherDisplay:10.37,2013-01-19 06:24:00,
2013-01-18 22:29:00,31.6,30.4,30.07,ESE,112,0.0,0.0,95,0.00,CLR,,0.00,WeatherDisplay:10.37,2013-01-19 06:29:00,
2013-01-18 22:34:00,31.6,30.4,30.07,ESE,112,0.0,0.0,95,0.00,CLR,,0.00,WeatherDisplay:10.37,2013-01-19 06:34:00,
2013-01-18 22:40:00,31.3,30.0,30.07,ESE,112,0.0,0.0,95,0.00,CLR,,0.00,WeatherDisplay:10.37,2013-01-19 06:40:00,
2013-01-18 22:45:00,31.3,30.0,30.06,ESE,112,0.0,0.0,95,0.00,CLR,,0.00,WeatherDisplay:10.37,2013-01-19 06:45:00,
2013-01-18 22:50:00,31.3,30.0,30.06,ESE,112,0.0,0.0,95,0.00,CLR,,0.00,WeatherDisplay:10.37,2013-01-19 06:50:00,
2013-01-18 22:55:00,31.1,29.8,30.06,ESE,112,0.0,0.0,95,0.00,CLR,,0.00,WeatherDisplay:10.37,2013-01-19 06:55:00,
2013-01-18 23:00:00,30.9,29.7,30.06,ESE,112,0.0,0.0,95,0.00,CLR,,0.00,WeatherDisplay:10.37,2013-01-19 07:00:00,
2013-01-18 23:05:00,30.9,29.7,30.06,ESE,112,0.0,0.0,95,0.00,CLR,,0.00,WeatherDisplay:10.37,2013-01-19 07:05:00,
2013-01-18 23:10:00,30.9,29.7,30.07,ESE,112,0.0,0.0,95,0.00,CLR,,0.00,WeatherDisplay:10.37,2013-01-19 07:10:00,
2013-01-18 23:15:00,31.1,29.8,30.06,ESE,112,0.0,0.0,95,0.00,CLR,,0.00,WeatherDisplay:10.37,2013-01-19 07:15:00,
2013-01-18 23:20:00,31.1,29.8,30.06,ESE,112,0.0,0.0,95,0.00,CLR,,0.00,WeatherDisplay:10.37,2013-01-19 07:20:00,
2013-01-18 23:25:00,31.1,29.8,30.07,ESE,112,0.0,0.0,95,0.00,CLR,,0.00,WeatherDisplay:10.37,2013-01-19 07:25:00,
2013-01-18 23:30:00,30.9,29.7,30.07,ESE,112,1.1,1.1,95,0.00,CLR,,0.00,WeatherDisplay:10.37,2013-01-19 07:30:00,
2013-01-18 23:35:00,30.9,29.7,30.07,SE,135,0.0,0.0,95,0.00,CLR,,0.00,WeatherDisplay:10.37,2013-01-19 07:35:00,
2013-01-18 23:40:00,30.9,29.7,30.07,SE,135,0.0,0.0,95,0.00,CLR,,0.00,WeatherDisplay:10.37,2013-01-19 07:40:00,
2013-01-18 23:45:00,30.9,29.7,30.07,SE,135,0.0,0.0,95,0.00,CLR,,0.00,WeatherDisplay:10.37,2013-01-19 07:45:00,
2013-01-18 23:50:00,30.9,29.7,30.07,SE,135,0.0,0.0,95,0.00,CLR,,0.00,WeatherDisplay:10.37,2013-01-19 07:50:00,
2013-01-18 23:55:00,30.9,29.7,30.07,SE,135,0.0,0.0,95,0.00,CLR,,0.00,WeatherDisplay:10.37,2013-01-19 07:55:00,